createdAt,value
2023-03-22T00:04:24.989Z,1006.08
2023-03-22T00:10:47.991Z,1006.08
2023-03-22T00:17:08.047Z,1006.04
2023-03-22T00:23:31.007Z,1005.96
2023-03-22T00:29:50.998Z,1005.9
2023-03-22T00:36:14.023Z,1005.84
2023-03-22T00:42:33.975Z,1005.8
2023-03-22T00:48:57.079Z,1005.71
2023-03-22T00:55:17.012Z,1005.63
2023-03-22T01:01:40.015Z,1005.51
2023-03-22T01:08:00.076Z,1005.34
2023-03-22T01:14:23.030Z,1005.27
2023-03-22T01:20:43.016Z,1005.21
2023-03-22T01:27:06.006Z,1005.17
2023-03-22T01:33:26.038Z,1005.15
2023-03-22T01:39:49.000Z,1005.11
2023-03-22T01:46:09.014Z,1005.07
2023-03-22T01:52:32.026Z,1005.05
2023-03-22T01:58:52.012Z,1004.99
2023-03-22T02:05:15.022Z,1004.94
2023-03-22T02:11:35.682Z,1004.92
2023-03-22T02:17:58.022Z,1004.94
2023-03-22T02:24:18.015Z,1004.86
2023-03-22T02:30:41.306Z,1004.78
2023-03-22T02:37:01.080Z,1004.72
2023-03-22T02:43:23.982Z,1004.68
2023-03-22T02:49:44.020Z,1004.68
2023-03-22T02:56:07.018Z,1004.6
2023-03-22T03:02:27.065Z,1004.54
2023-03-22T03:08:50.025Z,1004.48
2023-03-22T03:15:10.028Z,1004.41
2023-03-22T03:21:33.031Z,1004.31
2023-03-22T03:27:53.042Z,1004.25
2023-03-22T03:34:15.982Z,1004.19
2023-03-22T03:40:36.030Z,1004.15
2023-03-22T03:46:59.026Z,1004.13
2023-03-22T03:53:18.997Z,1004.15
2023-03-22T03:59:41.993Z,1004.17
2023-03-22T04:06:02.050Z,1004.23
2023-03-22T04:12:24.981Z,1004.29
2023-03-22T04:35:09.989Z,1004.29
2023-03-22T04:41:32.990Z,1004.29
2023-03-22T04:47:53.053Z,1004.33
2023-03-22T04:54:16.028Z,1004.31
2023-03-22T05:00:35.982Z,1004.27
2023-03-22T05:06:59.001Z,1004.19
2023-03-22T05:13:19.030Z,1004.09
2023-03-22T05:19:42.020Z,1004.09
2023-03-22T05:26:02.058Z,1004.13
2023-03-22T05:32:25.041Z,1004.15
2023-03-22T05:38:44.981Z,1004.07
2023-03-22T05:45:08.017Z,1004
2023-03-22T05:51:28.028Z,1003.98
2023-03-22T05:57:51.025Z,1004.05
2023-03-22T06:04:11.011Z,1004.13
2023-03-22T06:10:34.062Z,1004.15
2023-03-22T06:16:54.037Z,1004.17
2023-03-22T06:23:17.009Z,1004.17
2023-03-22T06:29:37.017Z,1004.15
2023-03-22T06:35:59.991Z,1004.19
2023-03-22T06:42:19.980Z,1004.19
2023-03-22T06:48:43.116Z,1004.25
2023-03-22T06:55:02.999Z,1004.29
2023-03-22T07:01:26.044Z,1004.27
2023-03-22T07:07:46.050Z,1004.27
2023-03-22T07:14:08.991Z,1004.25
2023-03-22T07:20:28.996Z,1004.21
2023-03-22T07:26:52.007Z,1004.13
2023-03-22T07:33:11.993Z,1004.07
2023-03-22T07:39:34.988Z,1004.01
2023-03-22T07:45:55.011Z,1003.92
2023-03-22T07:52:18.009Z,1003.82
2023-03-22T07:58:38.014Z,1003.74
2023-03-22T08:05:01.076Z,1003.68
2023-03-22T08:11:20.985Z,1003.6
2023-03-22T08:17:43.989Z,1003.6
2023-03-22T08:24:04.081Z,1003.6
2023-03-22T08:30:27.026Z,1003.53
2023-03-22T08:36:47.023Z,1003.56
2023-03-22T08:43:10.048Z,1003.56
2023-03-22T08:49:29.992Z,1003.54
2023-03-22T08:55:53.042Z,1003.56
2023-03-22T09:02:13.154Z,1003.64
2023-03-22T09:08:36.001Z,1003.7
2023-03-22T09:14:56.965Z,1003.68
2023-03-22T09:21:19.022Z,1003.6
2023-03-22T09:27:38.987Z,1003.56
2023-03-22T09:34:01.993Z,1003.51
2023-03-22T09:57:43.515Z,1003.39
2023-03-22T10:04:03.031Z,1003.31
2023-03-22T10:10:26.047Z,1003.25
2023-03-22T10:16:46.006Z,1003.19
2023-03-22T10:23:08.985Z,1003.19
2023-03-22T10:29:29.027Z,1003.13
2023-03-22T10:35:52.262Z,1003.11
2023-03-22T10:42:11.981Z,1003.15
2023-03-22T10:48:35.022Z,1003.13
2023-03-22T10:54:55.007Z,1003.13
2023-03-22T11:01:18.081Z,1003.09
2023-03-22T11:07:37.982Z,1003.07
2023-03-22T11:14:01.088Z,1003.11
2023-03-22T11:20:21.042Z,1003.19
2023-03-22T11:26:43.978Z,1003.19
2023-03-22T11:33:04.091Z,1003.15
2023-03-22T11:39:26.995Z,1003.15
2023-03-22T11:45:47.012Z,1003.06
2023-03-22T11:52:10.015Z,1003.06
2023-03-22T11:58:29.995Z,1003.06
2023-03-22T12:04:53.106Z,1003.04
2023-03-22T12:11:13.018Z,1003
2023-03-22T12:17:36.079Z,1003
2023-03-22T12:23:56.099Z,1002.98
2023-03-22T12:30:19.238Z,1002.98
2023-03-22T12:36:38.997Z,1002.96
2023-03-22T12:43:01.998Z,1002.98
2023-03-22T12:49:22.016Z,1002.92
2023-03-22T12:55:45.158Z,1002.83
2023-03-22T13:02:05.084Z,1002.81
2023-03-22T13:08:28.034Z,1002.83
2023-03-22T13:14:48.002Z,1002.94
2023-03-22T13:21:11.250Z,1002.96
2023-03-22T13:27:32.021Z,1002.98
2023-03-22T13:33:55.010Z,1002.98
2023-03-22T13:40:14.982Z,1003
2023-03-22T13:46:38.136Z,1002.94
2023-03-22T13:52:57.990Z,1002.81
2023-03-22T13:59:20.999Z,1002.72
2023-03-22T14:05:41.089Z,1002.58
2023-03-22T14:12:04.037Z,1002.52
2023-03-22T14:18:24.007Z,1002.5
2023-03-22T14:49:09.032Z,1002.27
2023-03-22T14:55:28.979Z,1002.29
2023-03-22T15:01:51.982Z,1002.27
2023-03-22T15:08:12.015Z,1002.23
2023-03-22T15:14:34.987Z,1002.29
2023-03-22T15:20:55.018Z,1002.27
2023-03-22T15:43:43.034Z,1002.07
2023-03-22T15:50:06.037Z,1002.01
2023-03-22T15:56:29.091Z,1001.95
2023-03-22T16:02:49.017Z,1001.95
2023-03-22T16:09:08.998Z,1001.91
2023-03-22T16:15:31.991Z,1001.85
2023-03-22T16:21:52.013Z,1001.85
2023-03-22T16:28:15.058Z,1001.89
2023-03-22T16:34:34.985Z,1001.91
2023-03-22T16:40:58.012Z,1001.89
2023-03-22T16:47:17.994Z,1001.89
2023-03-22T16:53:41.009Z,1001.91
2023-03-22T17:00:01.008Z,1001.89
2023-03-22T17:06:24.003Z,1001.93
2023-03-22T17:12:44.254Z,1001.87
2023-03-22T17:19:07.073Z,1001.85
2023-03-22T17:25:26.992Z,1001.8
2023-03-22T17:31:53.573Z,1001.83
2023-03-22T17:38:10.056Z,1001.85
2023-03-22T17:44:32.984Z,1001.85
2023-03-22T17:50:52.992Z,1001.83
2023-03-22T18:03:37.002Z,1001.76
2023-03-22T18:09:59.980Z,1001.7
2023-03-22T18:16:20.067Z,1001.72
2023-03-22T18:22:43.108Z,1001.68
2023-03-22T18:29:02.974Z,1001.68
2023-03-22T18:35:26.030Z,1001.7
2023-03-22T18:41:46.600Z,1001.7
2023-03-22T18:48:08.967Z,1001.68
2023-03-22T19:00:51.989Z,1001.64
2023-03-22T19:07:17.726Z,1001.62
2023-03-22T19:13:37.352Z,1001.58
2023-03-22T19:19:54.973Z,1001.54
2023-03-22T19:26:18.463Z,1001.52
2023-03-22T19:32:38.330Z,1001.5
2023-03-22T19:39:01.002Z,1001.4
2023-03-22T19:45:21.016Z,1001.36
2023-03-22T19:51:44.083Z,1001.27
2023-03-22T19:58:03.981Z,1001.15
2023-03-22T20:04:26.991Z,1001.05
2023-03-22T20:10:47.005Z,1001.03
2023-03-22T20:17:12.576Z,1000.99
2023-03-22T20:23:30.302Z,1000.93
2023-03-22T20:29:53.064Z,1000.91
2023-03-22T20:36:13.076Z,1000.91
2023-03-22T20:42:36.012Z,1000.91
2023-03-22T20:58:44.015Z,1000.86
2023-03-22T21:05:06.979Z,1000.82
2023-03-22T21:11:27.142Z,1000.76
2023-03-22T21:17:50.480Z,1000.78
2023-03-22T21:24:10.235Z,1000.78
2023-03-22T21:30:33.000Z,1000.76
2023-03-22T21:36:53.006Z,1000.7
2023-03-22T21:43:16.001Z,1000.58
2023-03-22T21:49:35.981Z,1000.44
2023-03-22T21:55:59.034Z,1000.39
2023-03-22T22:02:18.972Z,1000.41
2023-03-22T22:08:41.976Z,1000.24
2023-03-22T22:15:02.138Z,1000.2
2023-03-22T22:21:25.002Z,1000.35
2023-03-22T22:27:44.997Z,1000.37
2023-03-22T22:34:08.049Z,1000.41
2023-03-22T22:40:28.003Z,1000.39
2023-03-22T22:46:51.018Z,1000.35
2023-03-22T22:53:10.999Z,1000.2
2023-03-22T22:59:34.000Z,1000.2
2023-03-22T23:22:31.999Z,1000.16
2023-03-22T23:28:51.997Z,1000.12
2023-03-22T23:35:15.009Z,1000.01
2023-03-22T23:41:35.024Z,999.95
2023-03-22T23:47:57.986Z,999.87
2023-03-22T23:54:18.025Z,999.81
